createdAt,value
2022-11-17T00:09:18.661Z,3.67
2022-11-17T00:12:56.220Z,3.66
2022-11-17T00:15:31.163Z,3.68
2022-11-17T00:22:12.896Z,3.75
2022-11-17T00:24:45.039Z,3.77
2022-11-17T00:27:17.437Z,3.75
2022-11-17T00:34:45.512Z,3.75
2022-11-17T00:37:18.082Z,3.79
2022-11-17T00:40:33.213Z,3.80
2022-11-17T00:52:07.290Z,3.78
2022-11-17T00:54:39.557Z,3.79
2022-11-17T00:57:12.209Z,3.81
2022-11-17T00:59:44.729Z,3.82
2022-11-17T01:02:26.060Z,3.84
2022-11-17T01:05:46.659Z,3.85
2022-11-17T01:08:26.991Z,3.87
2022-11-17T01:20:12.136Z,3.84
2022-11-17T01:23:33.893Z,3.82
2022-11-17T01:26:08.274Z,3.81
2022-11-17T01:28:41.370Z,3.83
2022-11-17T01:32:01.730Z,3.85
2022-11-17T01:34:58.318Z,3.84
2022-11-17T01:42:31.625Z,3.84
2022-11-17T01:45:59.760Z,3.80
2022-11-17T01:48:32.054Z,3.77
2022-11-17T01:51:06.163Z,3.78
2022-11-17T02:10:56.242Z,3.77
2022-11-17T02:13:28.980Z,3.79
2022-11-17T02:16:01.220Z,3.80
2022-11-17T02:18:34.021Z,3.81
2022-11-17T02:34:02.104Z,3.78
2022-11-17T02:37:15.504Z,3.80
2022-11-17T02:41:12.755Z,3.81
2022-11-17T02:52:33.630Z,3.83
2022-11-17T02:55:08.284Z,3.82
2022-11-17T02:58:36.116Z,3.83
2022-11-17T03:06:06.065Z,3.86
2022-11-17T03:26:28.855Z,3.81
2022-11-17T03:55:10.944Z,3.74
2022-11-17T03:57:56.223Z,3.74
2022-11-17T04:04:59.625Z,3.75
2022-11-17T04:07:33.943Z,3.75
2022-11-17T04:10:30.448Z,3.74
2022-11-17T04:17:15.190Z,3.74
2022-11-17T04:19:48.318Z,3.73
2022-11-17T04:27:35.723Z,3.70
2022-11-17T04:34:14.850Z,3.69
2022-11-17T04:36:47.248Z,3.66
2022-11-17T04:39:26.482Z,3.63
2022-11-17T04:42:02.075Z,3.59
2022-11-17T04:45:23.310Z,3.54
2022-11-17T04:48:45.716Z,3.54
2022-11-17T05:13:53.107Z,3.58
2022-11-17T05:20:30.458Z,3.58
2022-11-17T05:32:04.445Z,3.55
2022-11-17T05:34:36.630Z,3.55
2022-11-17T05:37:08.886Z,3.55
2022-11-17T05:40:25.079Z,3.53
2022-11-17T05:56:37.049Z,3.45
2022-11-17T05:59:43.296Z,3.46
2022-11-17T06:10:37.945Z,3.42
2022-11-17T06:17:22.993Z,3.37
2022-11-17T06:20:00.060Z,3.34
2022-11-17T06:22:33.763Z,3.32
2022-11-17T06:25:11.983Z,3.30
2022-11-17T06:27:44.244Z,3.27
2022-11-17T06:30:16.820Z,3.25
2022-11-17T06:32:50.099Z,3.22
2022-11-17T06:35:23.313Z,3.21
2022-11-17T06:37:55.509Z,3.20
2022-11-17T06:40:28.056Z,3.19
2022-11-17T06:43:09.667Z,3.18
2022-11-17T06:45:44.224Z,3.19
2022-11-17T06:48:18.135Z,3.23
2022-11-17T06:50:51.066Z,3.26
2022-11-17T06:53:26.615Z,3.29
2022-11-17T06:56:15.574Z,3.30
2022-11-17T06:58:47.739Z,3.28
2022-11-17T07:01:20.141Z,3.25
2022-11-17T07:03:52.572Z,3.24
2022-11-17T07:06:25.188Z,3.22
2022-11-17T07:08:58.422Z,3.20
2022-11-17T07:11:30.670Z,3.21
2022-11-17T07:14:02.877Z,3.20
2022-11-17T07:16:37.571Z,3.18
2022-11-17T07:19:13.226Z,3.17
2022-11-17T07:21:45.360Z,3.17
2022-11-17T07:24:17.465Z,3.16
2022-11-17T07:26:49.896Z,3.14
2022-11-17T07:29:22.024Z,3.13
2022-11-17T07:31:54.501Z,3.13
2022-11-17T07:34:34.392Z,3.15
2022-11-17T07:37:07.533Z,3.16
2022-11-17T07:39:39.898Z,3.16
2022-11-17T07:42:14.719Z,3.17
2022-11-17T07:44:47.383Z,3.14
2022-11-17T07:47:20.223Z,3.12
2022-11-17T07:49:52.359Z,3.12
2022-11-17T07:52:24.892Z,3.12
2022-11-17T07:54:57.078Z,3.13
2022-11-17T07:57:31.313Z,3.13
2022-11-17T08:00:03.982Z,3.15
2022-11-17T08:02:44.297Z,3.15
2022-11-17T08:05:17.452Z,3.14
2022-11-17T08:07:57.483Z,3.16
2022-11-17T08:10:31.439Z,3.18
2022-11-17T08:13:03.649Z,3.18
2022-11-17T08:15:36.273Z,3.16
2022-11-17T08:18:08.890Z,3.16
2022-11-17T08:20:41.061Z,3.16
2022-11-17T08:23:13.234Z,3.18
2022-11-17T08:25:45.411Z,3.21
2022-11-17T08:28:17.726Z,3.22
2022-11-17T08:30:49.968Z,3.21
2022-11-17T08:33:23.004Z,3.20
2022-11-17T08:35:57.756Z,3.21
2022-11-17T08:38:34.586Z,3.19
2022-11-17T08:41:09.844Z,3.17
2022-11-17T08:43:41.914Z,3.17
2022-11-17T08:46:15.764Z,3.18
2022-11-17T08:48:52.234Z,3.16
2022-11-17T08:51:29.101Z,3.14
2022-11-17T08:54:02.801Z,3.14
2022-11-17T08:56:34.966Z,3.14
2022-11-17T08:59:07.358Z,3.14
2022-11-17T09:01:40.934Z,3.15
2022-11-17T09:04:13.462Z,3.17
2022-11-17T09:06:45.749Z,3.18
2022-11-17T09:09:18.776Z,3.18
2022-11-17T09:11:51.131Z,3.16
2022-11-17T09:14:23.277Z,3.15
2022-11-17T09:16:55.395Z,3.16
2022-11-17T09:19:27.633Z,3.17
2022-11-17T09:22:00.085Z,3.18
2022-11-17T09:24:32.968Z,3.14
2022-11-17T09:27:05.332Z,3.12
2022-11-17T09:29:37.381Z,3.13
2022-11-17T09:32:09.710Z,3.13
2022-11-17T09:34:49.233Z,3.12
2022-11-17T09:37:22.670Z,3.09
2022-11-17T09:39:55.106Z,3.07
2022-11-17T09:42:27.586Z,3.05
2022-11-17T09:45:04.729Z,3.01
2022-11-17T09:47:43.426Z,2.98
2022-11-17T09:50:24.647Z,2.97
2022-11-17T09:53:06.509Z,2.95
2022-11-17T09:55:41.689Z,2.94
2022-11-17T09:58:20.417Z,2.93
2022-11-17T10:00:54.589Z,2.92
2022-11-17T10:03:32.946Z,2.96
2022-11-17T10:06:09.546Z,3.03
2022-11-17T10:08:48.042Z,3.11
2022-11-17T10:11:32.820Z,3.21
2022-11-17T10:14:15.891Z,3.27
2022-11-17T10:16:54.121Z,3.29
2022-11-17T10:19:28.312Z,3.28
2022-11-17T10:22:16.641Z,3.27
2022-11-17T10:24:50.665Z,3.29
2022-11-17T10:27:25.653Z,3.31
2022-11-17T10:30:03.266Z,3.28
2022-11-17T10:32:48.637Z,3.20
2022-11-17T10:35:23.022Z,3.10
2022-11-17T10:38:00.741Z,3.08
2022-11-17T10:40:46.815Z,3.07
2022-11-17T10:43:28.500Z,3.07
2022-11-17T10:46:04.610Z,3.07
2022-11-17T10:48:43.763Z,3.08
2022-11-17T10:51:27.027Z,3.07
2022-11-17T10:54:20.159Z,3.09
2022-11-17T10:56:55.567Z,3.14
2022-11-17T10:59:31.840Z,3.14
2022-11-17T11:02:28.170Z,3.15
2022-11-17T11:05:11.922Z,3.18
2022-11-17T11:07:44.019Z,3.17
2022-11-17T11:10:21.898Z,3.19
2022-11-17T11:13:21.605Z,3.22
2022-11-17T11:16:14.205Z,3.22
2022-11-17T11:18:47.285Z,3.18
2022-11-17T11:21:26.029Z,3.15
2022-11-17T11:24:04.492Z,3.16
2022-11-17T11:26:48.455Z,3.12
2022-11-17T11:29:31.149Z,3.11
2022-11-17T11:32:21.636Z,3.09
2022-11-17T11:35:13.302Z,3.04
2022-11-17T11:37:59.073Z,3.00
2022-11-17T11:40:38.555Z,2.96
2022-11-17T11:43:26.986Z,2.93
2022-11-17T11:46:09.696Z,2.89
2022-11-17T11:48:43.333Z,2.90
2022-11-17T11:51:19.509Z,2.90
2022-11-17T11:53:58.070Z,2.92
2022-11-17T11:56:35.066Z,2.96
2022-11-17T11:59:14.241Z,2.96
2022-11-17T12:05:29.190Z,2.94
2022-11-17T12:11:46.120Z,2.82
2022-11-17T12:14:23.488Z,2.79
2022-11-17T12:17:05.835Z,2.78
2022-11-17T12:19:55.422Z,2.76
2022-11-17T12:23:03.874Z,2.74
2022-11-17T12:25:38.309Z,2.75
2022-11-17T12:28:31.920Z,2.76
2022-11-17T12:31:10.024Z,2.78
2022-11-17T12:38:37.376Z,2.81
2022-11-17T12:41:09.476Z,2.82
2022-11-17T12:43:41.917Z,2.84
2022-11-17T12:46:29.005Z,2.84
2022-11-17T12:49:23.895Z,2.85
2022-11-17T12:52:01.273Z,2.83
2022-11-17T12:54:42.211Z,2.84
2022-11-17T12:57:20.188Z,2.84
2022-11-17T13:00:07.801Z,2.84
2022-11-17T13:03:06.591Z,2.89
2022-11-17T13:05:39.472Z,2.94
2022-11-17T13:08:23.351Z,2.93
2022-11-17T13:11:07.394Z,2.95
2022-11-17T13:13:46.799Z,2.97
2022-11-17T13:16:23.107Z,2.94
2022-11-17T13:18:55.668Z,2.93
2022-11-17T13:21:33.607Z,2.92
2022-11-17T13:24:05.974Z,2.91
2022-11-17T13:26:38.674Z,2.88
2022-11-17T13:29:13.787Z,2.87
2022-11-17T13:31:46.163Z,2.89
2022-11-17T13:34:21.358Z,2.93
2022-11-17T13:36:58.059Z,2.95
2022-11-17T13:39:31.124Z,2.98
2022-11-17T13:42:05.133Z,3.01
2022-11-17T13:44:40.617Z,3.00
2022-11-17T13:47:24.970Z,3.01
2022-11-17T13:49:57.031Z,2.97
2022-11-17T13:52:41.931Z,2.95
2022-11-17T13:55:21.272Z,2.91
2022-11-17T13:58:00.457Z,2.90
2022-11-17T14:00:34.162Z,2.92
2022-11-17T14:03:07.385Z,2.90
2022-11-17T14:05:55.528Z,2.87
2022-11-17T14:08:30.921Z,2.86
2022-11-17T14:11:23.827Z,2.84
2022-11-17T14:13:58.888Z,2.83
2022-11-17T14:16:38.991Z,2.81
2022-11-17T14:19:30.697Z,2.82
2022-11-17T14:22:06.137Z,2.81
2022-11-17T14:24:42.011Z,2.77
2022-11-17T14:27:36.713Z,2.77
2022-11-17T14:30:11.829Z,2.75
2022-11-17T14:32:44.074Z,2.72
2022-11-17T14:37:50.156Z,2.71
2022-11-17T14:40:22.849Z,2.70
2022-11-17T14:42:55.175Z,2.71
2022-11-17T14:45:27.855Z,2.72
2022-11-17T14:47:59.990Z,2.72
2022-11-17T14:50:32.096Z,2.72
2022-11-17T14:53:04.312Z,2.71
2022-11-17T14:55:37.110Z,2.72
2022-11-17T14:58:10.101Z,2.70
2022-11-17T15:00:42.301Z,2.71
2022-11-17T15:03:14.509Z,2.71
2022-11-17T15:05:49.673Z,2.66
2022-11-17T15:08:21.802Z,2.62
2022-11-17T15:10:55.422Z,2.61
2022-11-17T15:13:27.620Z,2.61
2022-11-17T15:16:05.992Z,2.63
2022-11-17T15:18:38.696Z,2.62
2022-11-17T15:21:13.302Z,2.63
2022-11-17T15:23:46.139Z,2.63
2022-11-17T15:26:20.212Z,2.61
2022-11-17T15:28:52.501Z,2.59
2022-11-17T15:31:25.939Z,2.57
2022-11-17T15:33:58.086Z,2.53
2022-11-17T15:36:32.289Z,2.50
2022-11-17T15:39:04.868Z,2.47
2022-11-17T15:41:37.484Z,2.43
2022-11-17T15:44:10.005Z,2.41
2022-11-17T15:46:47.136Z,2.41
2022-11-17T15:49:19.683Z,2.39
2022-11-17T15:51:51.917Z,2.37
2022-11-17T15:54:23.988Z,2.31
2022-11-17T15:56:56.846Z,2.31
2022-11-17T15:59:29.191Z,2.33
2022-11-17T16:02:09.135Z,2.34
2022-11-17T16:04:41.700Z,2.30
2022-11-17T16:07:13.877Z,2.25
2022-11-17T16:09:49.136Z,2.22
2022-11-17T16:12:24.555Z,2.18
2022-11-17T16:14:56.655Z,2.14
2022-11-17T16:17:29.133Z,2.09
2022-11-17T16:20:01.764Z,2.02
2022-11-17T16:22:35.016Z,2.00
2022-11-17T16:25:10.487Z,1.98
2022-11-17T16:27:42.637Z,1.99
2022-11-17T16:30:16.701Z,2.01
2022-11-17T16:32:49.234Z,1.99
2022-11-17T16:35:21.371Z,1.95
2022-11-17T16:37:55.560Z,1.93
2022-11-17T16:40:27.634Z,1.97
2022-11-17T16:43:00.309Z,1.99
2022-11-17T16:45:32.453Z,1.98
2022-11-17T16:48:04.736Z,1.96
2022-11-17T16:50:39.019Z,1.93
2022-11-17T16:53:11.265Z,1.92
2022-11-17T16:55:43.469Z,1.92
2022-11-17T16:58:15.587Z,1.91
2022-11-17T17:00:48.232Z,1.88
2022-11-17T17:03:20.891Z,1.80
2022-11-17T17:05:53.322Z,1.72
2022-11-17T17:08:27.596Z,1.68
2022-11-17T17:11:04.759Z,1.65
2022-11-17T17:13:37.570Z,1.63
2022-11-17T17:16:11.833Z,1.66
2022-11-17T17:18:44.612Z,1.67
2022-11-17T17:21:18.610Z,1.67
2022-11-17T17:23:50.691Z,1.67
2022-11-17T17:26:24.958Z,1.66
2022-11-17T17:28:59.612Z,1.69
2022-11-17T17:31:34.796Z,1.73
2022-11-17T17:34:10.112Z,1.73
2022-11-17T17:36:42.234Z,1.73
2022-11-17T17:39:16.754Z,1.74
2022-11-17T17:41:49.031Z,1.74
2022-11-17T17:44:21.608Z,1.74
2022-11-17T17:46:53.840Z,1.71
2022-11-17T17:49:25.972Z,1.69
2022-11-17T17:51:58.657Z,1.68
2022-11-17T17:54:30.835Z,1.67
2022-11-17T17:57:02.933Z,1.68
2022-11-17T17:59:34.980Z,1.68
2022-11-17T18:02:07.059Z,1.68
2022-11-17T18:04:39.276Z,1.68
2022-11-17T18:07:11.609Z,1.72
2022-11-17T18:09:44.708Z,1.74
2022-11-17T18:12:17.133Z,1.77
2022-11-17T18:14:49.730Z,1.78
2022-11-17T18:17:21.856Z,1.75
2022-11-17T18:19:53.931Z,1.72
2022-11-17T18:22:26.004Z,1.71
2022-11-17T18:24:58.483Z,1.71
2022-11-17T18:27:33.055Z,1.68
2022-11-17T18:30:06.266Z,1.66
2022-11-17T18:32:40.375Z,1.65
2022-11-17T18:35:12.851Z,1.66
2022-11-17T18:37:45.155Z,1.67
2022-11-17T18:40:18.084Z,1.68
2022-11-17T18:42:50.485Z,1.70
2022-11-17T18:45:22.824Z,1.72
2022-11-17T18:47:55.448Z,1.71
2022-11-17T18:50:27.834Z,1.67
2022-11-17T18:53:00.739Z,1.66
2022-11-17T18:55:33.334Z,1.65
2022-11-17T18:58:05.948Z,1.66
2022-11-17T19:00:38.173Z,1.70
2022-11-17T19:03:10.464Z,1.73
2022-11-17T19:05:42.764Z,1.77
2022-11-17T19:08:15.194Z,1.80
2022-11-17T19:10:54.701Z,1.80
2022-11-17T19:13:27.526Z,1.79
2022-11-17T19:16:04.778Z,1.78
2022-11-17T19:18:37.294Z,1.79
2022-11-17T19:21:11.677Z,1.77
2022-11-17T19:23:51.080Z,1.73
2022-11-17T19:26:25.899Z,1.70
2022-11-17T19:28:59.729Z,1.70
2022-11-17T19:31:32.306Z,1.68
2022-11-17T19:34:05.192Z,1.67
2022-11-17T19:36:37.865Z,1.64
2022-11-17T19:39:12.836Z,1.59
2022-11-17T19:41:47.919Z,1.56
2022-11-17T19:44:20.332Z,1.57
2022-11-17T19:46:52.623Z,1.58
2022-11-17T19:49:24.987Z,1.59
2022-11-17T19:51:57.369Z,1.56
2022-11-17T19:54:30.560Z,1.53
2022-11-17T19:57:03.521Z,1.54
2022-11-17T19:59:36.141Z,1.55
2022-11-17T20:02:08.545Z,1.56
2022-11-17T20:04:41.556Z,1.57
2022-11-17T20:07:14.198Z,1.57
2022-11-17T20:09:46.516Z,1.54
2022-11-17T20:12:19.033Z,1.51
2022-11-17T20:14:51.147Z,1.47
2022-11-17T20:17:23.231Z,1.45
2022-11-17T20:19:55.470Z,1.43
2022-11-17T20:22:27.844Z,1.43
2022-11-17T20:25:03.448Z,1.43
2022-11-17T20:27:36.223Z,1.45
2022-11-17T20:30:14.910Z,1.48
2022-11-17T20:32:48.782Z,1.48
2022-11-17T20:35:20.864Z,1.50
2022-11-17T20:37:53.017Z,1.52
2022-11-17T20:40:25.209Z,1.52
2022-11-17T20:42:58.487Z,1.50
2022-11-17T20:45:30.547Z,1.49
2022-11-17T20:48:02.952Z,1.50
2022-11-17T20:50:35.142Z,1.48
2022-11-17T20:53:09.633Z,1.47
2022-11-17T20:55:41.844Z,1.46
2022-11-17T20:58:14.732Z,1.47
2022-11-17T21:00:46.935Z,1.49
2022-11-17T21:03:19.497Z,1.53
2022-11-17T21:05:59.484Z,1.53
2022-11-17T21:08:33.294Z,1.54
2022-11-17T21:11:08.071Z,1.53
2022-11-17T21:13:40.681Z,1.51
2022-11-17T21:16:15.620Z,1.48
2022-11-17T21:18:49.949Z,1.47
2022-11-17T21:21:22.325Z,1.46
2022-11-17T21:23:57.220Z,1.45
2022-11-17T21:26:29.824Z,1.45
2022-11-17T21:29:06.452Z,1.41
2022-11-17T21:31:40.676Z,1.36
2022-11-17T21:34:17.629Z,1.33
2022-11-17T21:36:50.069Z,1.34
2022-11-17T21:39:22.650Z,1.30
2022-11-17T21:41:55.328Z,1.27
2022-11-17T21:44:27.914Z,1.27
2022-11-17T21:46:59.982Z,1.26
2022-11-17T21:49:32.413Z,1.26
2022-11-17T21:52:05.912Z,1.27
2022-11-17T21:54:37.962Z,1.25
2022-11-17T21:57:10.027Z,1.20
2022-11-17T21:59:42.800Z,1.14
2022-11-17T22:02:15.029Z,1.12
2022-11-17T22:04:48.072Z,1.11
2022-11-17T22:07:20.174Z,1.13
2022-11-17T22:09:52.295Z,1.14
2022-11-17T22:12:24.999Z,1.14
2022-11-17T22:14:57.113Z,1.13
2022-11-17T22:17:29.672Z,1.12
2022-11-17T22:20:02.279Z,1.12
2022-11-17T22:22:34.788Z,1.12
2022-11-17T22:25:37.648Z,1.15
2022-11-17T22:28:02.698Z,1.17
2022-11-17T22:30:35.206Z,1.14
2022-11-17T22:33:07.370Z,1.11
2022-11-17T22:35:39.631Z,1.12
2022-11-17T22:38:12.057Z,1.17
2022-11-17T22:40:44.518Z,1.22
2022-11-17T22:43:16.683Z,1.28
2022-11-17T22:45:48.843Z,1.31
2022-11-17T22:48:21.056Z,1.32
2022-11-17T22:50:53.514Z,1.36
2022-11-17T22:53:25.732Z,1.39
2022-11-17T22:56:01.823Z,1.41
2022-11-17T22:58:34.852Z,1.44
2022-11-17T23:01:08.762Z,1.47
2022-11-17T23:03:40.957Z,1.51
2022-11-17T23:06:13.263Z,1.53
2022-11-17T23:08:47.383Z,1.56
2022-11-17T23:11:36.647Z,1.58
2022-11-17T23:14:12.359Z,1.58
2022-11-17T23:16:44.935Z,1.59
2022-11-17T23:19:17.374Z,1.58
2022-11-17T23:21:49.749Z,1.58
2022-11-17T23:24:25.296Z,1.53
2022-11-17T23:26:58.430Z,1.48
2022-11-17T23:29:33.306Z,1.43
2022-11-17T23:32:05.820Z,1.41
2022-11-17T23:34:37.942Z,1.41
2022-11-17T23:37:12.420Z,1.39
2022-11-17T23:39:44.497Z,1.39
2022-11-17T23:42:16.756Z,1.39
2022-11-17T23:44:48.998Z,1.38
2022-11-17T23:47:21.222Z,1.41
2022-11-17T23:49:54.781Z,1.43
2022-11-17T23:52:26.900Z,1.44
2022-11-17T23:54:59.065Z,1.47
2022-11-17T23:57:31.608Z,1.47
